logo
Rechercher aéroport 
image banner adimage banner adimage banner ad
image banner ad

YRST - Rostella

Situé à Launceston, Australia

ICAO - , IATA -

Données fournies par Airmate  

Information générale

Coordonnées: S41°19'53" E147°3'1"
Élévation : 30 feet MSL.
 
Voir autres Aéroports à Tasmania

Données opérationnelles

Special qualification required
Heure actuelle UTC:
Heure actuelle locale:
Météo à : YMLT - Launceston ( 27 km )
TAF: TAF AMD YMLT 220526Z 2206/2306 34010KT 9999 BKN030 FM221500 34005KT 9999 FEW030 FM230200 34008KT 9999 SCT030 FM230500 16010KT 9999 -SHRA BKN030 PROB30 2216/2222 0500 FG
Voir NOTAMs / SUP AIP / TFR affectant cet aéroport [VIEW]
Fréquences de communication: [VIEW]

Pistes:

Identifiant RWYQFULongueur (ft)Largeur (ft)SurfaceLDA (ft)
16286198UNK
34286198UNK

Coordonnées de l'aéroport

Adresse: Launceston Australia

Vue satellite de YRST